createdAt,value
2023-09-03T00:03:35.882Z,101293.63
2023-09-03T00:08:32.990Z,101282.56
2023-09-03T00:13:29.483Z,101265.50
2023-09-03T00:18:26.050Z,101267.69
2023-09-03T00:23:22.909Z,101282.06
2023-09-03T00:28:20.017Z,101276.25
2023-09-03T00:33:16.904Z,101273.09
2023-09-03T00:38:13.320Z,101276.75
2023-09-03T00:43:09.748Z,101268.38
2023-09-03T00:48:07.231Z,101265.78
2023-09-03T00:53:04.514Z,101272.13
2023-09-03T00:58:01.154Z,101274.94
2023-09-03T01:02:57.632Z,101274.56
2023-09-03T01:07:54.948Z,101288.56
2023-09-03T01:13:02.905Z,101304.53
2023-09-03T01:18:22.744Z,101291.16
2023-09-03T01:23:47.451Z,101288.25
2023-09-03T01:28:45.232Z,101285.56
2023-09-03T01:33:44.166Z,101287.25
2023-09-03T01:38:41.514Z,101287.38
2023-09-03T01:43:38.072Z,101303.03
2023-09-03T01:48:40.321Z,101308.41
2023-09-03T01:53:51.987Z,101310.22
2023-09-03T01:58:50.436Z,101313.47
2023-09-03T02:03:48.940Z,101313.47
2023-09-03T02:08:45.348Z,101302.03
2023-09-03T02:13:41.747Z,101303.91
2023-09-03T02:18:38.182Z,101313.13
2023-09-03T02:23:34.683Z,101318.97
2023-09-03T02:28:31.305Z,101306.03
2023-09-03T02:33:27.749Z,101297.50
2023-09-03T02:38:24.186Z,101287.84
2023-09-03T02:43:20.596Z,101290.69
2023-09-03T02:48:17.025Z,101272.22
2023-09-03T02:53:13.400Z,101260.97
2023-09-03T02:58:09.842Z,101263.84
2023-09-03T03:03:06.361Z,101271.91
2023-09-03T03:08:04.188Z,101267.75
2023-09-03T03:13:00.871Z,101267.41
2023-09-03T03:17:57.329Z,101263.84
2023-09-03T03:22:54.155Z,101275.47
2023-09-03T03:27:50.588Z,101282.91
2023-09-03T03:32:47.027Z,101305.41
2023-09-03T03:37:43.504Z,101330.84
2023-09-03T03:42:40.122Z,101333.50
2023-09-03T03:47:38.131Z,101342.16
2023-09-03T03:52:34.547Z,101348.25
2023-09-03T03:57:30.972Z,101351.25
2023-09-03T04:02:27.401Z,101362.88
2023-09-03T04:07:23.880Z,101368.22
2023-09-03T04:12:20.773Z,101387.53
2023-09-03T04:17:17.261Z,101387.97
2023-09-03T04:22:14.201Z,101389.34
2023-09-03T04:27:10.679Z,101391.88
2023-09-03T04:32:07.435Z,101396.59
2023-09-03T04:37:04.011Z,101416.63
2023-09-03T04:42:00.469Z,101430.38
2023-09-03T04:46:57.182Z,101436.28
2023-09-03T04:51:53.630Z,101451.41
2023-09-03T04:56:50.221Z,101469.88
2023-09-03T05:01:47.517Z,101481.94
2023-09-03T05:06:44.001Z,101488.13
2023-09-03T05:11:43.338Z,101492.22
2023-09-03T05:16:39.829Z,101497.97
2023-09-03T05:21:36.282Z,101506.19
2023-09-03T05:26:33.034Z,101518.53
2023-09-03T05:31:31.713Z,101539.22
2023-09-03T05:36:28.430Z,101551.59
2023-09-03T05:41:24.841Z,101581.59
2023-09-03T05:46:21.355Z,101595.00
2023-09-03T05:51:18.097Z,101618.81
2023-09-03T05:56:14.754Z,101607.38
2023-09-03T06:01:12.220Z,101604.31
2023-09-03T06:06:11.060Z,101577.09
2023-09-03T06:11:09.120Z,101548.28
2023-09-03T06:16:05.537Z,101548.19
2023-09-03T06:21:02.059Z,101552.66
2023-09-03T06:25:58.616Z,101539.72
2023-09-03T06:30:58.355Z,101564.31
2023-09-03T06:35:55.314Z,101562.41
2023-09-03T06:40:51.727Z,101552.41
2023-09-03T06:45:48.187Z,101544.09
2023-09-03T06:50:44.691Z,101542.19
2023-09-03T06:55:44.018Z,101540.78
2023-09-03T07:00:40.489Z,101540.69
2023-09-03T07:05:37.030Z,101542.47
2023-09-03T07:10:34.581Z,101551.81
2023-09-03T07:15:31.001Z,101542.09
2023-09-03T07:20:27.410Z,101537.50
2023-09-03T07:25:23.957Z,101527.75
2023-09-03T07:30:20.456Z,101522.69
2023-09-03T07:35:16.944Z,101514.06
2023-09-03T07:40:13.858Z,101520.28
2023-09-03T07:45:10.734Z,101511.13
2023-09-03T07:50:07.612Z,101524.94
2023-09-03T07:55:04.265Z,101530.69
2023-09-03T08:00:00.774Z,101538.59
2023-09-03T08:04:57.243Z,101537.47
2023-09-03T08:09:53.840Z,101549.66
2023-09-03T08:14:50.903Z,101549.53
2023-09-03T08:19:48.237Z,101542.56
2023-09-03T08:24:44.631Z,101536.25
2023-09-03T08:29:41.261Z,101543.25
2023-09-03T08:34:38.102Z,101545.13
2023-09-03T08:39:34.495Z,101542.00
2023-09-03T08:44:43.295Z,101552.91
2023-09-03T08:49:41.086Z,101559.75
2023-09-03T08:54:38.886Z,101555.31
2023-09-03T08:59:35.536Z,101561.63
2023-09-03T09:04:32.396Z,101572.09
2023-09-03T09:09:30.861Z,101560.91
2023-09-03T09:14:38.458Z,101569.47
2023-09-03T09:19:34.807Z,101564.38
2023-09-03T09:24:31.820Z,101566.09
2023-09-03T09:29:28.271Z,101563.31
2023-09-03T09:34:24.691Z,101561.81
2023-09-03T09:39:22.713Z,101559.75
2023-09-03T09:44:21.270Z,101574.81
2023-09-03T09:49:17.686Z,101576.88
2023-09-03T09:54:14.182Z,101580.81
2023-09-03T09:59:11.310Z,101574.53
2023-09-03T10:04:07.736Z,101565.66
2023-09-03T10:09:04.678Z,101571.34
2023-09-03T10:14:01.144Z,101572.03
2023-09-03T10:19:01.387Z,101580.28
2023-09-03T10:24:00.096Z,101572.00
2023-09-03T10:29:04.166Z,101562.94
2023-09-03T10:34:00.618Z,101567.22
2023-09-03T10:38:59.208Z,101564.78
2023-09-03T10:43:56.418Z,101569.81
2023-09-03T10:48:57.937Z,101567.03
2023-09-03T10:53:54.389Z,101574.59
2023-09-03T10:58:57.685Z,101575.34
2023-09-03T11:03:55.454Z,101587.78
2023-09-03T11:09:01.040Z,101590.28
2023-09-03T11:13:58.145Z,101601.88
2023-09-03T11:18:54.767Z,101594.22
2023-09-03T11:24:05.598Z,101596.75
2023-09-03T11:29:03.698Z,101604.34
2023-09-03T11:34:00.443Z,101600.97
2023-09-03T11:38:57.883Z,101597.25
2023-09-03T11:43:54.332Z,101587.16
2023-09-03T11:48:52.656Z,101586.88
2023-09-03T11:53:50.528Z,101598.94
2023-09-03T11:58:51.847Z,101586.66
2023-09-03T12:03:48.885Z,101598.91
2023-09-03T12:08:46.110Z,101594.63
2023-09-03T12:13:42.679Z,101592.63
2023-09-03T12:18:40.226Z,101613.28
2023-09-03T12:23:38.299Z,101602.22
2023-09-03T12:28:37.337Z,101605.44
2023-09-03T12:33:33.904Z,101586.69
2023-09-03T12:38:30.428Z,101578.19
2023-09-03T12:43:37.517Z,101577.09
2023-09-03T12:48:33.900Z,101577.00
2023-09-03T12:53:33.341Z,101581.88
2023-09-03T12:58:29.741Z,101572.63
2023-09-03T13:03:30.201Z,101560.19
2023-09-03T13:08:26.727Z,101579.75
2023-09-03T13:13:24.293Z,101578.19
2023-09-03T13:18:21.472Z,101570.81
2023-09-03T13:23:17.968Z,101569.97
2023-09-03T13:28:14.462Z,101566.09
2023-09-03T13:33:11.557Z,101564.03
2023-09-03T13:38:08.476Z,101568.44
2023-09-03T13:43:05.088Z,101569.94
2023-09-03T13:48:01.809Z,101567.09
2023-09-03T13:52:59.783Z,101560.59
2023-09-03T13:57:56.307Z,101564.03
2023-09-03T14:02:52.754Z,101564.81
2023-09-03T14:07:49.358Z,101568.91
2023-09-03T14:12:45.800Z,101556.81
2023-09-03T14:17:42.315Z,101551.78
2023-09-03T14:22:39.948Z,101548.69
2023-09-03T14:27:36.441Z,101551.47
2023-09-03T14:32:32.962Z,101553.63
2023-09-03T14:37:29.439Z,101534.06
2023-09-03T14:42:25.858Z,101537.00
2023-09-03T14:47:22.640Z,101532.06
2023-09-03T14:52:20.319Z,101533.13
2023-09-03T14:57:16.716Z,101540.63
2023-09-03T15:02:13.157Z,101540.31
2023-09-03T15:07:10.459Z,101534.69
2023-09-03T15:12:06.935Z,101532.00
2023-09-03T15:17:04.327Z,101520.25
2023-09-03T15:22:00.784Z,101523.94
2023-09-03T15:26:57.178Z,101527.41
2023-09-03T15:31:53.700Z,101546.09
2023-09-03T15:36:52.158Z,101545.38
2023-09-03T15:41:48.565Z,101553.50
2023-09-03T15:46:45.028Z,101558.25
2023-09-03T15:51:45.917Z,101557.59
2023-09-03T15:56:42.481Z,101539.44
2023-09-03T16:01:38.960Z,101548.47
2023-09-03T16:06:35.506Z,101545.31
2023-09-03T16:11:32.022Z,101544.63
2023-09-03T16:16:31.262Z,101557.53
2023-09-03T16:21:27.921Z,101550.13
2023-09-03T16:26:24.329Z,101560.41
2023-09-03T16:31:20.759Z,101547.19
2023-09-03T16:36:17.257Z,101555.91
2023-09-03T16:41:13.790Z,101560.81
2023-09-03T16:46:10.330Z,101555.72
2023-09-03T16:51:06.723Z,101554.78
2023-09-03T16:56:03.156Z,101551.19
2023-09-03T17:00:59.665Z,101552.97
2023-09-03T17:05:56.231Z,101547.53
2023-09-03T17:10:52.692Z,101541.25
2023-09-03T17:15:49.157Z,101538.78
2023-09-03T17:20:45.617Z,101551.50
2023-09-03T17:25:42.135Z,101554.88
2023-09-03T17:30:38.689Z,101564.84
2023-09-03T17:35:36.569Z,101570.81
2023-09-03T17:40:33.027Z,101575.66
2023-09-03T17:45:29.386Z,101575.38
2023-09-03T17:50:25.801Z,101578.06
2023-09-03T17:55:22.314Z,101572.84
2023-09-03T18:00:18.837Z,101583.66
2023-09-03T18:05:19.069Z,101591.63
2023-09-03T18:10:15.513Z,101593.50
2023-09-03T18:15:12.037Z,101585.63
2023-09-03T18:20:08.821Z,101594.38
2023-09-03T18:25:05.557Z,101591.63
2023-09-03T18:30:04.706Z,101602.69
2023-09-03T18:35:01.777Z,101615.53
2023-09-03T18:39:58.186Z,101622.41
2023-09-03T18:44:54.618Z,101611.78
2023-09-03T18:49:51.003Z,101614.03
2023-09-03T18:54:47.412Z,101607.06
2023-09-03T18:59:44.882Z,101618.94
2023-09-03T19:04:41.444Z,101619.72
2023-09-03T19:09:39.794Z,101612.56
2023-09-03T19:14:36.405Z,101603.34
2023-09-03T19:19:32.862Z,101613.72
2023-09-03T19:24:29.267Z,101611.59
2023-09-03T19:29:26.290Z,101610.34
2023-09-03T19:34:25.410Z,101617.81
2023-09-03T19:39:22.896Z,101614.44
2023-09-03T19:44:21.521Z,101604.16
2023-09-03T19:49:18.040Z,101598.72
2023-09-03T19:54:14.707Z,101592.47
2023-09-03T19:59:11.109Z,101586.88
2023-09-03T20:04:07.547Z,101592.25
2023-09-03T20:09:06.598Z,101579.22
2023-09-03T20:14:03.492Z,101589.31
2023-09-03T20:18:59.990Z,101588.31
2023-09-03T20:23:56.374Z,101582.47
2023-09-03T20:28:53.197Z,101584.16
2023-09-03T20:33:50.781Z,101597.75
2023-09-03T20:38:47.517Z,101598.91
2023-09-03T20:43:43.936Z,101590.84
2023-09-03T20:48:40.477Z,101596.66
2023-09-03T20:53:36.888Z,101594.84
2023-09-03T20:58:33.860Z,101591.56
2023-09-03T21:03:33.099Z,101594.16
2023-09-03T21:08:30.819Z,101584.53
2023-09-03T21:13:28.602Z,101594.16
2023-09-03T21:18:27.423Z,101592.84
2023-09-03T21:23:24.583Z,101600.31
2023-09-03T21:28:21.555Z,101605.03
2023-09-03T21:33:18.326Z,101600.00
2023-09-03T21:38:14.798Z,101610.94
2023-09-03T21:43:11.290Z,101615.03
2023-09-03T21:48:08.564Z,101614.50
2023-09-03T21:53:05.389Z,101616.88
2023-09-03T21:58:01.782Z,101624.31
2023-09-03T22:02:58.331Z,101614.09
2023-09-03T22:07:55.093Z,101623.50
2023-09-03T22:12:52.793Z,101630.25
2023-09-03T22:17:49.301Z,101636.13
2023-09-03T22:22:45.693Z,101638.38
2023-09-03T22:27:42.148Z,101639.69
2023-09-03T22:32:38.599Z,101637.63
2023-09-03T22:37:35.037Z,101639.03
2023-09-03T22:42:31.486Z,101645.75
2023-09-03T22:47:29.637Z,101644.75
2023-09-03T22:52:26.033Z,101655.56
2023-09-03T22:57:23.976Z,101636.22
2023-09-03T23:02:20.434Z,101628.59
2023-09-03T23:07:16.887Z,101618.56
2023-09-03T23:12:13.603Z,101621.63
2023-09-03T23:17:12.062Z,101621.31
2023-09-03T23:22:08.626Z,101629.44
2023-09-03T23:27:05.393Z,101644.38
2023-09-03T23:32:01.748Z,101637.94
2023-09-03T23:36:58.184Z,101643.88
2023-09-03T23:41:56.686Z,101653.03
2023-09-03T23:47:06.747Z,101651.78
2023-09-03T23:52:09.483Z,101668.09
2023-09-03T23:57:05.945Z,101659.78
